Time;durP1;ratioP1;P1;durP2;ratioP2;P2;SDS_P1;SDS_P2;PMS_P1;PMS_P2;Temp;Humidity;BMP_temperature;BMP_pressure;BME280_temperature;BME280_humidity;BME280_pressure;Samples;Min_cycle;Max_cycle;Signal;HPM_P1;HPM_P2
2021/12/20 00:00:38;;;;;;;0.00;0.00;;;3.50;92.20;;;;;;4975581;28;20038;-83
2021/12/20 00:03:05;;;;;;;0.00;0.00;;;3.40;92.10;;;;;;4974285;28;20093;-83
2021/12/20 00:05:31;;;;;;;0.00;0.00;;;3.40;92.20;;;;;;4975299;28;20363;-83
2021/12/20 00:07:58;;;;;;;0.00;0.00;;;3.40;92.40;;;;;;4976124;28;20039;-83
2021/12/20 00:10:24;;;;;;;0.00;0.00;;;3.50;92.70;;;;;;4978067;28;20105;-83
2021/12/20 00:12:50;;;;;;;0.00;0.00;;;3.50;92.90;;;;;;4979355;28;20530;-82
2021/12/20 00:15:17;;;;;;;0.00;0.00;;;3.50;92.90;;;;;;4979055;28;20031;-83
2021/12/20 00:17:43;;;;;;;0.00;0.00;;;3.50;93.30;;;;;;4978835;28;20074;-81
2021/12/20 00:20:09;;;;;;;0.00;0.00;;;3.50;93.20;;;;;;4961857;28;20023;-82
2021/12/20 00:22:36;;;;;;;0.00;0.00;;;3.60;92.90;;;;;;4979230;28;20023;-83
2021/12/20 00:25:03;;;;;;;0.00;0.00;;;3.60;93.10;;;;;;4978734;28;20019;-83
2021/12/20 00:27:29;;;;;;;0.00;0.00;;;3.60;93.20;;;;;;4977473;28;20037;-81
2021/12/20 00:29:55;;;;;;;0.00;0.00;;;3.60;93.20;;;;;;4978840;28;20050;-84
2021/12/20 00:32:20;;;;;;;0.00;0.00;;;3.70;93.10;;;;;;4978829;28;20482;-82
2021/12/20 00:34:46;;;;;;;0.00;0.00;;;3.70;93.10;;;;;;4978810;28;20039;-83
2021/12/20 00:42:43;;;;;;;0.00;0.00;;;3.80;92.80;;;;;;4978694;28;20058;-83
2021/12/20 00:45:11;;;;;;;0.08;0.03;;;3.80;93.20;;;;;;4977135;28;20034;-82
2021/12/20 00:47:37;;;;;;;0.00;0.00;;;3.80;93.30;;;;;;4994930;28;20030;-82
2021/12/20 00:50:05;;;;;;;0.00;0.00;;;3.80;93.40;;;;;;4997425;28;20027;-82
2021/12/20 00:52:31;;;;;;;0.00;0.00;;;3.80;93.20;;;;;;4996069;28;20058;-83
2021/12/20 00:54:57;;;;;;;0.00;0.00;;;3.80;93.10;;;;;;4996370;28;20120;-82
2021/12/20 00:57:23;;;;;;;0.00;0.00;;;3.80;92.80;;;;;;4997362;28;20034;-82
2021/12/20 00:59:48;;;;;;;0.00;0.00;;;3.80;92.70;;;;;;4992942;28;20472;-84
2021/12/20 01:02:14;;;;;;;0.00;0.00;;;3.80;92.40;;;;;;4992878;28;20058;-83
2021/12/20 01:04:40;;;;;;;0.00;0.00;;;3.80;91.90;;;;;;4977812;28;20031;-82
2021/12/20 01:07:06;;;;;;;0.00;0.00;;;3.80;91.90;;;;;;4978212;28;20038;-82
2021/12/20 01:09:32;;;;;;;0.00;0.00;;;3.70;91.60;;;;;;4993020;28;20027;-82
2021/12/20 01:12:03;;;;;;;0.00;0.00;;;3.60;91.40;;;;;;4993376;28;20035;-81
2021/12/20 01:14:31;;;;;;;0.00;0.00;;;3.60;91.30;;;;;;4977551;28;20467;-82
2021/12/20 01:17:03;;;;;;;0.00;0.00;;;3.50;91.10;;;;;;4977401;28;20031;-82
2021/12/20 01:19:29;;;;;;;0.00;0.00;;;3.50;91.10;;;;;;4977927;28;20027;-83
2021/12/20 01:21:55;;;;;;;0.00;0.00;;;3.40;91.10;;;;;;4978721;28;20118;-83
2021/12/20 01:24:21;;;;;;;0.00;0.00;;;3.40;91.20;;;;;;4978382;28;20030;-82
2021/12/20 01:26:47;;;;;;;0.00;0.00;;;3.30;91.20;;;;;;4977403;28;20372;-81
2021/12/20 01:29:13;;;;;;;0.00;0.00;;;3.30;91.50;;;;;;4977709;28;20157;-82
2021/12/20 01:31:38;;;;;;;0.00;0.00;;;3.30;91.80;;;;;;4977226;28;20089;-82
2021/12/20 01:34:04;;;;;;;0.00;0.00;;;3.20;91.60;;;;;;4992473;28;20583;-82
2021/12/20 01:36:31;;;;;;;0.00;0.00;;;3.20;91.70;;;;;;4977836;28;20027;-82
2021/12/20 01:38:56;;;;;;;0.00;0.00;;;3.20;91.90;;;;;;4977745;28;20030;-82
2021/12/20 01:41:22;;;;;;;0.00;0.00;;;3.20;92.50;;;;;;4994755;28;20379;-82
2021/12/20 01:43:48;;;;;;;0.00;0.00;;;3.20;92.90;;;;;;4996856;28;20034;-82
2021/12/20 01:46:14;;;;;;;0.00;0.00;;;3.30;93.30;;;;;;4992595;28;20030;-83
2021/12/20 01:48:42;;;;;;;0.00;0.00;;;3.30;92.90;;;;;;4979567;28;20027;-83
2021/12/20 01:53:35;;;;;;;0.00;0.00;;;3.30;92.20;;;;;;4997341;28;20031;-82
2021/12/20 01:56:02;;;;;;;0.00;0.00;;;3.30;92.00;;;;;;4995730;28;20054;-82
2021/12/20 01:58:30;;;;;;;0.00;0.00;;;3.20;92.00;;;;;;4997237;28;20023;-82
2021/12/20 02:03:33;;;;;;;0.00;0.00;;;3.20;91.70;;;;;;4996969;28;20379;-82
2021/12/20 02:06:04;;;;;;;0.00;0.00;;;3.20;91.50;;;;;;4995485;28;20026;-81
2021/12/20 02:08:30;;;;;;;0.00;0.00;;;3.20;91.60;;;;;;4995485;28;20165;-81
2021/12/20 02:11:03;;;;;;;0.00;0.00;;;3.10;91.40;;;;;;4991594;28;20129;-82
2021/12/20 02:13:29;;;;;;;0.00;0.00;;;3.10;91.50;;;;;;4975875;28;20034;-82
2021/12/20 02:16:00;;;;;;;0.00;0.00;;;3.10;91.70;;;;;;4976922;28;20460;-82
2021/12/20 02:18:26;;;;;;;0.00;0.00;;;3.00;92.00;;;;;;4977154;28;20027;-81
2021/12/20 02:20:52;;;;;;;0.00;0.00;;;3.00;92.40;;;;;;4977530;28;20034;-83
2021/12/20 02:23:18;;;;;;;0.00;0.00;;;3.10;92.80;;;;;;4992964;28;20089;-83
2021/12/20 02:25:43;;;;;;;0.00;0.00;;;3.10;93.20;;;;;;4991735;28;20069;-82
2021/12/20 02:28:12;;;;;;;0.00;0.00;;;3.10;93.60;;;;;;4975050;28;20102;-82
2021/12/20 02:30:49;;;;;;;0.00;0.00;;;3.20;93.90;;;;;;4976564;28;20023;-82
2021/12/20 02:38:48;;;;;;;0.00;0.00;;;3.40;93.60;;;;;;4976321;28;20042;-82
2021/12/20 02:41:33;;;;;;;0.00;0.00;;;3.40;93.00;;;;;;4976180;28;20031;-82
2021/12/20 02:44:10;;;;;;;;;;;3.40;93.40;;;;;;4975740;28;20031;-83
2021/12/20 02:49:05;;;;;;;0.00;0.00;;;3.50;93.40;;;;;;4976313;28;20038;-84
2021/12/20 02:51:32;;;;;;;0.00;0.00;;;3.50;93.70;;;;;;4975211;28;20062;-83
2021/12/20 02:54:00;;;;;;;0.00;0.00;;;3.50;93.70;;;;;;4977000;28;20034;-82
2021/12/20 02:56:26;;;;;;;0.00;0.00;;;3.50;93.70;;;;;;4975575;28;20022;-82
2021/12/20 02:58:53;;;;;;;0.00;0.00;;;3.60;93.10;;;;;;4976727;28;20030;-82
2021/12/20 03:01:19;;;;;;;0.00;0.00;;;3.60;93.40;;;;;;4976536;28;20448;-82
2021/12/20 03:03:47;;;;;;;0.00;0.00;;;3.60;93.20;;;;;;4976655;28;20031;-82
2021/12/20 03:06:18;;;;;;;0.00;0.00;;;3.60;92.80;;;;;;4976940;28;20056;-83
2021/12/20 03:08:47;;;;;;;0.00;0.00;;;3.50;92.60;;;;;;4974834;28;20050;-81
2021/12/20 03:11:14;;;;;;;0.00;0.00;;;3.50;92.70;;;;;;4975723;28;20031;-81
2021/12/20 03:13:41;;;;;;;0.00;0.00;;;3.50;92.50;;;;;;4976288;28;20035;-83
2021/12/20 03:16:06;;;;;;;0.00;0.00;;;3.50;92.00;;;;;;4991403;28;20383;-83
2021/12/20 03:18:32;;;;;;;0.00;0.00;;;3.50;92.00;;;;;;4976580;28;20031;-82
2021/12/20 03:20:58;;;;;;;0.00;0.00;;;3.40;91.80;;;;;;4991168;28;20034;-83
2021/12/20 03:23:23;;;;;;;0.00;0.00;;;3.40;91.60;;;;;;4975747;28;20027;-82
2021/12/20 03:25:49;;;;;;;0.00;0.00;;;3.40;91.80;;;;;;4991148;28;20375;-81
2021/12/20 03:28:15;;;;;;;0.00;0.00;;;3.40;91.90;;;;;;4975569;28;20089;-82
2021/12/20 03:30:41;;;;;;;0.00;0.00;;;3.30;92.20;;;;;;4975812;28;20497;-83
2021/12/20 03:33:07;;;;;;;0.00;0.00;;;3.30;92.30;;;;;;4975638;28;20037;-82
2021/12/20 03:35:33;;;;;;;0.00;0.00;;;3.30;92.60;;;;;;4975671;28;20101;-82
2021/12/20 03:37:58;;;;;;;0.00;0.00;;;3.40;93.00;;;;;;4975918;28;20030;-82
2021/12/20 03:40:25;;;;;;;0.00;0.00;;;3.40;92.90;;;;;;4975372;28;20386;-83
2021/12/20 03:42:50;;;;;;;0.00;0.00;;;3.40;92.90;;;;;;4977793;28;20050;-82
2021/12/20 03:45:16;;;;;;;0.00;0.00;;;3.50;93.00;;;;;;4979718;28;20073;-82
2021/12/20 03:47:43;;;;;;;0.00;0.00;;;3.50;93.10;;;;;;4979492;28;20077;-81
2021/12/20 03:50:10;;;;;;;0.00;0.00;;;3.50;92.90;;;;;;4979639;28;20049;-83
2021/12/20 03:52:38;;;;;;;0.00;0.00;;;3.50;93.20;;;;;;4978117;28;20038;-84
2021/12/20 03:55:06;;;;;;;0.00;0.00;;;3.50;92.60;;;;;;4978593;28;20034;-84
2021/12/20 03:57:32;;;;;;;0.00;0.00;;;3.50;93.00;;;;;;4978356;28;20027;-83
2021/12/20 03:59:58;;;;;;;0.00;0.00;;;3.60;93.10;;;;;;4979541;28;20027;-82
2021/12/20 04:02:25;;;;;;;0.00;0.00;;;3.60;93.10;;;;;;4979468;28;20081;-83
2021/12/20 04:04:51;;;;;;;0.00;0.00;;;3.60;93.20;;;;;;4978424;28;20026;-82
2021/12/20 04:07:17;;;;;;;0.00;0.00;;;3.60;93.30;;;;;;4979632;28;20031;-82
2021/12/20 04:09:43;;;;;;;0.00;0.00;;;3.60;92.70;;;;;;4979639;28;20447;-82
2021/12/20 04:12:09;;;;;;;0.00;0.00;;;3.60;93.20;;;;;;4978978;28;20031;-83
2021/12/20 04:14:35;;;;;;;0.00;0.00;;;3.60;93.10;;;;;;4979173;28;20035;-83
2021/12/20 04:17:01;;;;;;;0.00;0.00;;;3.60;93.20;;;;;;4978986;28;20030;-82
2021/12/20 04:19:26;;;;;;;0.00;0.00;;;3.70;92.60;;;;;;4978100;28;20066;-83
2021/12/20 04:21:52;;;;;;;0.00;0.00;;;3.70;93.00;;;;;;4978984;28;20042;-81
2021/12/20 04:24:18;;;;;;;0.00;0.00;;;3.70;92.90;;;;;;4978845;28;20027;-83
2021/12/20 04:26:46;;;;;;;0.00;0.00;;;3.70;92.80;;;;;;4978709;28;20434;-82
2021/12/20 04:29:12;;;;;;;0.00;0.00;;;3.70;92.70;;;;;;4979061;28;20065;-83
2021/12/20 04:31:39;;;;;;;0.00;0.00;;;3.60;92.10;;;;;;4979026;28;20483;-82
2021/12/20 04:34:06;;;;;;;0.00;0.00;;;3.60;92.40;;;;;;4978558;28;20050;-83
2021/12/20 04:36:33;;;;;;;0.00;0.00;;;3.60;92.60;;;;;;4993718;28;20033;-82
2021/12/20 04:39:00;;;;;;;0.00;0.00;;;3.60;92.50;;;;;;4978101;28;20031;-82
2021/12/20 04:41:26;;;;;;;0.00;0.00;;;3.60;92.40;;;;;;4978446;28;20114;-82
2021/12/20 04:43:52;;;;;;;0.00;0.00;;;3.50;92.40;;;;;;4978694;28;20054;-83
2021/12/20 04:46:17;;;;;;;0.00;0.00;;;3.50;92.50;;;;;;4978638;28;20031;-82
2021/12/20 04:48:43;;;;;;;0.00;0.00;;;3.60;92.60;;;;;;4978214;28;20399;-82
2021/12/20 04:51:09;;;;;;;0.00;0.00;;;3.50;93.00;;;;;;4977487;28;20023;-82
2021/12/20 04:53:34;;;;;;;0.00;0.00;;;3.60;92.40;;;;;;4993069;28;20131;-82
2021/12/20 04:56:00;;;;;;;0.00;0.00;;;3.60;92.90;;;;;;4977212;28;20026;-82
2021/12/20 04:58:26;;;;;;;0.00;0.00;;;3.50;93.00;;;;;;4977963;28;20058;-82
2021/12/20 05:00:52;;;;;;;0.00;0.00;;;3.50;93.00;;;;;;4978236;28;20120;-83
2021/12/20 05:03:17;;;;;;;0.00;0.00;;;3.50;92.30;;;;;;4977848;28;20031;-83
2021/12/20 05:05:43;;;;;;;0.00;0.00;;;3.50;92.10;;;;;;4978104;28;20023;-82
2021/12/20 05:08:10;;;;;;;0.00;0.00;;;3.50;92.70;;;;;;4978701;28;20050;-83
2021/12/20 05:10:39;;;;;;;0.00;0.00;;;3.50;92.80;;;;;;4977714;28;20061;-82
2021/12/20 05:13:08;;;;;;;0.00;0.00;;;3.50;93.10;;;;;;4978090;28;20459;-82
2021/12/20 05:15:36;;;;;;;0.05;0.00;;;3.50;93.00;;;;;;4978806;28;20435;-82
2021/12/20 05:18:04;;;;;;;0.00;0.00;;;3.50;93.00;;;;;;4978989;28;20037;-82
2021/12/20 05:20:29;;;;;;;0.45;0.00;;;3.50;93.00;;;;;;4993240;28;20033;-84
2021/12/20 05:22:57;;;;;;;0.00;0.00;;;3.50;93.10;;;;;;4977859;28;20109;-82
2021/12/20 05:25:23;;;;;;;0.00;0.00;;;3.50;92.30;;;;;;4977990;28;20037;-82
2021/12/20 05:27:49;;;;;;;0.00;0.00;;;3.50;93.00;;;;;;4992907;28;20098;-82
2021/12/20 05:30:16;;;;;;;0.00;0.00;;;3.50;92.90;;;;;;4977389;28;20130;-82
2021/12/20 05:32:42;;;;;;;0.00;0.00;;;3.50;93.00;;;;;;4977350;28;20058;-83
2021/12/20 05:35:10;;;;;;;0.00;0.00;;;3.50;93.30;;;;;;4981395;28;20077;-83
2021/12/20 05:37:36;;;;;;;0.00;0.00;;;3.50;92.70;;;;;;4997391;28;20022;-84
2021/12/20 05:40:04;;;;;;;0.00;0.00;;;3.50;93.20;;;;;;4996665;28;20022;-83
2021/12/20 05:42:30;;;;;;;0.00;0.00;;;3.50;92.50;;;;;;4996422;28;20109;-83
2021/12/20 05:44:57;;;;;;;0.00;0.00;;;3.60;93.10;;;;;;4996811;28;20464;-83
2021/12/20 05:47:23;;;;;;;0.00;0.00;;;3.60;93.20;;;;;;4995143;28;20057;-83
2021/12/20 05:49:50;;;;;;;0.00;0.00;;;3.50;93.50;;;;;;4995823;28;20455;-83
2021/12/20 05:52:16;;;;;;;0.00;0.00;;;3.60;93.50;;;;;;4996563;28;20030;-82
2021/12/20 05:54:42;;;;;;;0.00;0.00;;;3.60;93.30;;;;;;5010939;28;20402;-83
2021/12/20 05:57:08;;;;;;;0.00;0.00;;;3.60;93.30;;;;;;5011380;28;20031;-82
2021/12/20 05:59:34;;;;;;;0.00;0.00;;;3.60;93.40;;;;;;4996304;28;20378;-83
2021/12/20 06:02:00;;;;;;;0.00;0.00;;;3.60;93.20;;;;;;4994689;28;20062;-82
2021/12/20 06:04:26;;;;;;;0.00;0.00;;;3.60;93.40;;;;;;4995755;28;20029;-83
2021/12/20 06:06:52;;;;;;;0.00;0.00;;;3.70;93.60;;;;;;4995270;28;20426;-83
2021/12/20 06:09:18;;;;;;;0.00;0.00;;;3.70;93.60;;;;;;4995438;28;20081;-82
2021/12/20 06:11:43;;;;;;;0.00;0.00;;;3.70;93.70;;;;;;5010616;28;20034;-84
2021/12/20 06:14:09;;;;;;;0.00;0.00;;;3.80;93.60;;;;;;4994437;28;20382;-83
2021/12/20 06:16:35;;;;;;;0.00;0.00;;;3.80;93.50;;;;;;4995624;28;20106;-83
2021/12/20 06:19:02;;;;;;;0.00;0.00;;;3.80;93.60;;;;;;4997425;28;20061;-84
2021/12/20 06:21:27;;;;;;;0.00;0.00;;;3.80;93.70;;;;;;4995169;28;20124;-83
2021/12/20 06:23:53;;;;;;;0.00;0.00;;;3.90;93.60;;;;;;4995360;28;20056;-83
2021/12/20 06:26:23;;;;;;;0.00;0.00;;;3.90;93.60;;;;;;4995752;28;20054;-84
2021/12/20 06:28:50;;;;;;;0.00;0.00;;;3.90;93.80;;;;;;4994095;28;20054;-84
2021/12/20 06:31:16;;;;;;;0.00;0.00;;;3.90;93.80;;;;;;4986176;28;20034;-84
2021/12/20 06:33:42;;;;;;;0.00;0.00;;;4.00;93.50;;;;;;4985848;28;20100;-84
2021/12/20 06:36:07;;;;;;;0.00;0.00;;;4.00;92.50;;;;;;4982918;28;20515;-83
2021/12/20 06:38:34;;;;;;;0.00;0.00;;;4.00;92.10;;;;;;4976939;28;20033;-83
2021/12/20 06:41:01;;;;;;;0.00;0.00;;;3.90;92.80;;;;;;4976159;28;20031;-83
2021/12/20 06:43:30;;;;;;;0.00;0.00;;;4.00;93.00;;;;;;4985514;28;20042;-84
2021/12/20 06:45:55;;;;;;;0.00;0.00;;;4.00;93.30;;;;;;4994696;28;20026;-84
2021/12/20 06:48:21;;;;;;;0.00;0.00;;;4.00;92.40;;;;;;4994900;28;20019;-82
2021/12/20 06:50:49;;;;;;;0.00;0.00;;;4.00;92.30;;;;;;4994599;28;20037;-84
2021/12/20 06:53:14;;;;;;;0.00;0.00;;;4.00;93.10;;;;;;4993647;28;20044;-86
2021/12/20 06:55:41;;;;;;;0.00;0.00;;;4.00;92.90;;;;;;4992993;28;20113;-85
2021/12/20 06:58:09;;;;;;;0.00;0.00;;;4.00;92.00;;;;;;4994510;28;20030;-84
2021/12/20 07:00:34;;;;;;;0.00;0.00;;;4.00;92.80;;;;;;4994926;28;20030;-86
2021/12/20 07:03:01;;;;;;;0.00;0.00;;;4.10;93.20;;;;;;4994475;28;20023;-86
2021/12/20 07:05:26;;;;;;;0.00;0.00;;;4.10;93.90;;;;;;4994877;28;20041;-86
2021/12/20 07:07:52;;;;;;;0.00;0.00;;;4.20;93.70;;;;;;4993517;28;20022;-85
2021/12/20 07:10:18;;;;;;;0.00;0.00;;;4.20;93.90;;;;;;4994791;28;20038;-84
2021/12/20 07:12:44;;;;;;;0.00;0.00;;;4.30;94.10;;;;;;4994407;28;20498;-86
2021/12/20 07:15:13;;;;;;;0.00;0.00;;;4.30;94.20;;;;;;4993749;28;20042;-85
2021/12/20 07:17:40;;;;;;;0.00;0.00;;;4.40;94.00;;;;;;4994234;28;20026;-87
2021/12/20 07:20:07;;;;;;;0.00;0.00;;;4.40;94.30;;;;;;4994912;28;20422;-86
2021/12/20 07:22:33;;;;;;;0.00;0.00;;;4.50;94.10;;;;;;4993899;28;20390;-86
2021/12/20 07:25:00;;;;;;;0.00;0.00;;;4.50;93.40;;;;;;4994438;28;20037;-85
2021/12/20 07:27:26;;;;;;;0.00;0.00;;;4.50;93.80;;;;;;4993292;28;20100;-86
2021/12/20 07:29:52;;;;;;;0.00;0.00;;;4.50;94.20;;;;;;4994666;28;20473;-86
2021/12/20 07:32:18;;;;;;;0.00;0.00;;;4.60;94.10;;;;;;4994298;28;20433;-86
2021/12/20 07:34:43;;;;;;;0.00;0.00;;;4.60;93.80;;;;;;4993261;28;20034;-86
2021/12/20 07:37:09;;;;;;;0.00;0.00;;;4.60;93.70;;;;;;4994910;28;20041;-84
2021/12/20 07:39:36;;;;;;;0.00;0.00;;;4.60;93.90;;;;;;4993994;28;20088;-85
2021/12/20 07:42:04;;;;;;;0.00;0.00;;;4.70;94.20;;;;;;4982060;28;20115;-86
2021/12/20 07:44:31;;;;;;;0.00;0.00;;;4.70;92.20;;;;;;4974698;28;20486;-87
2021/12/20 07:46:57;;;;;;;0.00;0.00;;;4.60;91.40;;;;;;4972662;28;20042;-85
2021/12/20 07:49:23;;;;;;;0.00;0.00;;;4.50;92.40;;;;;;4993279;28;20034;-85
2021/12/20 07:51:53;;;;;;;0.00;0.00;;;4.50;91.80;;;;;;4990182;28;20304;-86
2021/12/20 07:54:19;;;;;;;0.00;0.00;;;4.60;93.50;;;;;;4973762;28;20463;-86
2021/12/20 07:56:45;;;;;;;0.00;0.00;;;4.60;92.70;;;;;;4993107;28;20034;-85
2021/12/20 07:59:11;;;;;;;0.00;0.00;;;4.70;94.30;;;;;;4992447;28;20031;-85
2021/12/20 08:01:37;;;;;;;0.00;0.00;;;4.80;94.30;;;;;;4980772;28;20026;-85
2021/12/20 08:04:04;;;;;;;0.00;0.00;;;4.90;94.10;;;;;;4980776;28;20026;-84
2021/12/20 08:06:30;;;;;;;0.00;0.00;;;4.90;94.00;;;;;;4994373;28;20089;-84
2021/12/20 08:08:56;;;;;;;0.00;0.00;;;5.00;94.60;;;;;;4994267;28;20036;-83
2021/12/20 08:11:21;;;;;;;0.00;0.00;;;5.10;95.00;;;;;;4994328;28;20034;-86
2021/12/20 08:13:47;;;;;;;0.00;0.00;;;5.20;94.70;;;;;;4993721;28;20026;-83
2021/12/20 08:16:17;;;;;;;0.00;0.00;;;5.20;94.60;;;;;;4994423;28;20042;-86
2021/12/20 08:18:44;;;;;;;0.00;0.00;;;5.30;94.50;;;;;;4994324;28;20108;-86
2021/12/20 08:21:10;;;;;;;0.00;0.00;;;5.30;94.50;;;;;;4993777;28;20037;-87
2021/12/20 08:23:37;;;;;;;0.00;0.00;;;5.30;94.30;;;;;;4994342;28;20022;-87
2021/12/20 08:26:03;;;;;;;0.00;0.00;;;5.40;94.20;;;;;;4993575;28;20030;-85
2021/12/20 08:28:30;;;;;;;0.00;0.00;;;5.40;93.90;;;;;;4992643;28;20559;-85
2021/12/20 08:30:55;;;;;;;0.00;0.00;;;5.40;91.80;;;;;;4997286;28;20053;-86
2021/12/20 08:33:21;;;;;;;0.00;0.00;;;5.30;92.10;;;;;;4988705;28;20023;-85
2021/12/20 08:35:49;;;;;;;0.00;0.00;;;5.20;92.70;;;;;;4996053;28;20023;-84
2021/12/20 08:38:17;;;;;;;0.00;0.00;;;5.20;91.30;;;;;;4997477;28;20093;-84
2021/12/20 08:40:43;;;;;;;0.00;0.00;;;5.10;91.80;;;;;;4995537;28;20030;-87
2021/12/20 08:43:09;;;;;;;0.00;0.00;;;5.10;92.40;;;;;;4995462;28;20026;-88
2021/12/20 08:45:35;;;;;;;0.00;0.00;;;5.10;92.70;;;;;;4997821;28;20031;-86
2021/12/20 08:48:02;;;;;;;0.00;0.00;;;5.00;92.90;;;;;;4997933;28;20466;-87
2021/12/20 08:50:28;;;;;;;0.00;0.00;;;5.00;91.40;;;;;;4997657;28;20045;-88
2021/12/20 08:52:55;;;;;;;0.00;0.00;;;5.00;92.20;;;;;;4990460;28;20042;-87
2021/12/20 08:55:22;;;;;;;0.00;0.00;;;5.00;91.00;;;;;;4976368;28;20106;-88
2021/12/20 08:57:51;;;;;;;0.00;0.00;;;5.00;92.50;;;;;;4977154;28;20062;-86
2021/12/20 09:00:26;;;;;;;0.00;0.00;;;5.10;91.40;;;;;;4976088;28;20039;-88
2021/12/20 09:02:52;;;;;;;0.00;0.00;;;5.10;93.00;;;;;;4989024;28;20026;-87
2021/12/20 09:05:19;;;;;;;0.00;0.00;;;5.20;93.80;;;;;;4994465;28;20026;-86
2021/12/20 09:07:45;;;;;;;0.00;0.00;;;5.30;94.20;;;;;;4995033;28;20027;-87
2021/12/20 09:10:14;;;;;;;0.00;0.00;;;5.60;97.00;;;;;;4985411;28;20131;-85
2021/12/20 09:12:42;;;;;;;0.00;0.00;;;6.00;99.80;;;;;;4975880;28;20062;-86
2021/12/20 09:15:15;;;;;;;0.00;0.00;;;6.60;99.90;;;;;;4960109;28;20035;-89
2021/12/20 09:17:42;;;;;;;0.00;0.00;;;7.10;96.00;;;;;;4976360;28;20030;-85
2021/12/20 09:20:10;;;;;;;0.00;0.00;;;7.10;91.60;;;;;;4977228;28;20038;-85
2021/12/20 09:22:48;;;;;;;0.00;0.00;;;7.20;90.70;;;;;;4975560;28;20471;-84
2021/12/20 09:25:14;;;;;;;0.00;0.00;;;7.30;88.90;;;;;;4976924;28;20018;-84
2021/12/20 09:27:39;;;;;;;0.00;0.00;;;7.30;92.10;;;;;;4977374;28;20411;-85
2021/12/20 09:30:06;;;;;;;0.00;0.00;;;7.40;90.30;;;;;;4976017;28;20097;-86
2021/12/20 09:32:31;;;;;;;0.00;0.00;;;7.70;90.20;;;;;;4984497;28;20081;-85
2021/12/20 09:34:59;;;;;;;0.00;0.00;;;7.90;87.30;;;;;;4996094;28;20833;-86
2021/12/20 09:37:24;;;;;;;0.00;0.00;;;7.90;84.20;;;;;;4980292;28;20071;-86
2021/12/20 09:39:54;;;;;;;0.00;0.00;;;7.80;86.60;;;;;;4975427;28;20030;-86
2021/12/20 09:42:21;;;;;;;0.00;0.00;;;7.50;86.10;;;;;;4975524;28;20034;-85
2021/12/20 09:44:47;;;;;;;0.00;0.00;;;7.20;86.20;;;;;;4975701;28;20027;-87
2021/12/20 09:47:13;;;;;;;0.00;0.00;;;6.90;83.10;;;;;;4990321;28;20030;-86
2021/12/20 09:49:39;;;;;;;0.00;0.00;;;6.70;85.50;;;;;;4994546;28;20100;-86
2021/12/20 09:52:06;;;;;;;0.00;0.00;;;6.60;87.80;;;;;;4996013;28;20061;-86
2021/12/20 09:54:32;;;;;;;0.00;0.00;;;6.50;87.70;;;;;;4996713;28;20073;-85
2021/12/20 09:56:59;;;;;;;0.00;0.00;;;6.30;88.40;;;;;;4996064;28;20058;-86
2021/12/20 09:59:28;;;;;;;0.00;0.00;;;6.20;85.40;;;;;;4995867;28;20041;-87
2021/12/20 10:07:43;;;;;;;0.00;0.00;;;5.80;84.10;;;;;;4986950;28;20025;-84
2021/12/20 10:10:10;;;;;;;0.00;0.00;;;5.70;84.00;;;;;;4992439;28;20356;-86
2021/12/20 10:12:48;;;;;;;0.00;0.00;;;5.60;86.90;;;;;;4995191;28;20038;-83
2021/12/20 10:15:15;;;;;;;0.00;0.00;;;5.60;89.00;;;;;;4995650;28;20498;-83
2021/12/20 10:17:58;;;;;;;0.00;0.00;;;5.60;90.30;;;;;;4995801;28;20027;-84
2021/12/20 10:20:26;;;;;;;0.00;0.00;;;5.60;90.80;;;;;;4995726;28;20030;-84
2021/12/20 10:22:54;;;;;;;0.00;0.00;;;5.70;91.00;;;;;;4995487;28;20035;-83
2021/12/20 10:25:29;;;;;;;0.00;0.00;;;5.80;90.80;;;;;;4995071;28;20031;-83
2021/12/20 10:28:03;;;;;;;0.00;0.00;;;5.70;86.60;;;;;;4995763;28;20034;-85
2021/12/20 10:30:32;;;;;;;0.00;0.00;;;5.70;90.10;;;;;;4996054;28;20034;-86
2021/12/20 10:33:02;;;;;;;0.00;0.00;;;5.80;90.40;;;;;;4994169;28;20054;-83
2021/12/20 10:35:36;;;;;;;0.00;0.00;;;5.70;85.80;;;;;;4994108;28;20117;-85
2021/12/20 10:38:26;;;;;;;0.00;0.00;;;5.60;82.70;;;;;;4993050;28;20026;-85
2021/12/20 10:41:00;;;;;;;0.00;0.00;;;5.50;82.70;;;;;;4995022;28;20030;-85
2021/12/20 10:43:40;;;;;;;0.00;0.00;;;5.40;86.20;;;;;;4995829;28;20474;-84
2021/12/20 10:46:20;;;;;;;0.00;0.00;;;5.40;88.80;;;;;;4995384;28;20037;-84
2021/12/20 10:48:50;;;;;;;0.00;0.00;;;5.50;90.20;;;;;;4994933;28;20033;-84
2021/12/20 10:51:27;;;;;;;0.00;0.00;;;5.60;91.50;;;;;;4995215;28;20034;-85
2021/12/20 10:54:00;;;;;;;0.00;0.00;;;5.70;87.50;;;;;;4994656;28;20034;-84
2021/12/20 10:56:28;;;;;;;0.00;0.00;;;5.80;89.60;;;;;;4993289;28;20027;-84
2021/12/20 10:58:55;;;;;;;0.00;0.00;;;5.90;86.50;;;;;;4993259;28;20458;-84
2021/12/20 11:02:26;;;;;;;0.00;0.00;;;5.90;87.40;;;;;;4994408;28;20031;-85
2021/12/20 11:04:42;;;;;;;0.00;0.00;;;5.90;90.20;;;;;;4994750;28;20449;-84
2021/12/20 11:11:20;;;;;;;0.00;0.00;;;6.90;87.30;;;;;;4961416;28;20049;-84
2021/12/20 11:13:46;;;;;;;0.00;0.00;;;6.90;82.20;;;;;;4964051;28;20467;-85
2021/12/20 11:16:39;;;;;;;0.00;0.00;;;6.70;81.80;;;;;;4974977;28;20109;-85
2021/12/20 11:19:13;;;;;;;0.00;0.00;;;6.60;83.80;;;;;;4989668;28;20030;-86
2021/12/20 11:21:45;;;;;;;0.00;0.00;;;6.40;84.90;;;;;;4974467;28;20387;-84
2021/12/20 11:24:13;;;;;;;0.00;0.00;;;6.30;82.90;;;;;;4975155;28;20049;-86
2021/12/20 11:26:39;;;;;;;0.00;0.00;;;6.10;85.10;;;;;;4973869;28;20422;-85
2021/12/20 11:29:05;;;;;;;0.00;0.00;;;6.10;86.60;;;;;;4974877;28;20145;-86
2021/12/20 11:31:34;;;;;;;0.00;0.00;;;6.00;84.30;;;;;;4974848;28;20383;-85
2021/12/20 11:34:01;;;;;;;0.00;0.00;;;6.00;82.80;;;;;;4974614;28;20027;-84
2021/12/20 11:36:29;;;;;;;0.00;0.00;;;6.00;82.00;;;;;;4974695;28;20089;-85
2021/12/20 11:38:58;;;;;;;0.00;0.00;;;6.00;83.90;;;;;;4973279;28;20658;-86
2021/12/20 11:41:28;;;;;;;0.00;0.00;;;6.00;86.20;;;;;;4975475;28;20067;-86
2021/12/20 11:43:58;;;;;;;0.00;0.00;;;5.90;83.20;;;;;;4973614;28;20033;-86
2021/12/20 11:46:32;;;;;;;0.00;0.00;;;5.90;84.00;;;;;;4975450;28;20037;-85
2021/12/20 11:48:59;;;;;;;0.00;0.00;;;5.80;82.00;;;;;;4974937;28;20126;-86
2021/12/20 11:51:25;;;;;;;0.00;0.00;;;5.70;81.50;;;;;;4973382;28;20035;-85
2021/12/20 11:53:51;;;;;;;0.00;0.00;;;5.60;80.70;;;;;;4974598;28;20030;-84
2021/12/20 11:56:20;;;;;;;0.00;0.00;;;5.60;80.70;;;;;;4993208;28;20092;-85
2021/12/20 11:58:47;;;;;;;0.00;0.00;;;5.60;80.30;;;;;;4994147;28;20062;-86
2021/12/20 12:01:16;;;;;;;0.00;0.00;;;5.50;79.90;;;;;;4993878;28;20045;-85
2021/12/20 12:03:53;;;;;;;0.00;0.00;;;5.40;82.00;;;;;;4992559;28;20031;-86
2021/12/20 12:06:31;;;;;;;0.00;0.00;;;5.40;80.80;;;;;;4995452;28;20026;-84
2021/12/20 12:09:02;;;;;;;0.00;0.00;;;5.30;82.60;;;;;;4997242;28;20081;-87
2021/12/20 12:11:31;;;;;;;0.00;0.00;;;5.20;84.10;;;;;;4968784;28;20423;-82
2021/12/20 12:14:03;;;;;;;0.00;0.00;;;5.20;85.00;;;;;;4978480;28;20054;-85
2021/12/20 12:17:08;;;;;;;0.00;0.00;;;5.20;86.20;;;;;;4978255;28;20046;-86
2021/12/20 12:19:45;;;;;;;0.00;0.00;;;5.20;83.70;;;;;;4967412;28;20105;-86
2021/12/20 12:22:26;;;;;;;0.00;0.00;;;5.20;85.90;;;;;;4993260;28;20062;-86
2021/12/20 12:24:53;;;;;;;0.00;0.00;;;5.30;87.10;;;;;;4993303;28;20030;-85
2021/12/20 12:27:22;;;;;;;0.00;0.00;;;5.40;88.50;;;;;;4977897;28;20521;-85
2021/12/20 12:30:13;;;;;;;0.00;0.00;;;5.50;85.80;;;;;;4993177;28;20046;-83
2021/12/20 12:33:02;;;;;;;0.00;0.00;;;5.70;87.30;;;;;;4977897;28;20082;-86
2021/12/20 12:35:50;;;;;;;0.00;0.00;;;5.90;88.60;;;;;;4974550;28;20050;-86
2021/12/20 12:38:25;;;;;;;0.00;0.00;;;6.00;83.50;;;;;;4978554;28;20031;-87
2021/12/20 12:41:04;;;;;;;0.00;0.00;;;6.30;89.60;;;;;;4978034;28;20451;-84
2021/12/20 12:43:55;;;;;;;0.00;0.00;;;7.00;91.80;;;;;;4979267;28;20399;-85
2021/12/20 12:46:36;;;;;;;0.00;0.00;;;7.60;83.00;;;;;;4978067;28;20077;-85
2021/12/20 12:49:25;;;;;;;0.00;0.00;;;7.80;77.80;;;;;;4976739;28;20033;-85
2021/12/20 12:51:55;;;;;;;0.00;0.00;;;7.80;79.70;;;;;;4988177;28;20387;-83
2021/12/20 12:54:33;;;;;;;0.00;0.00;;;7.70;76.20;;;;;;4977674;28;20035;-85
2021/12/20 12:57:10;;;;;;;0.00;0.00;;;7.50;73.70;;;;;;4977473;28;20042;-84
2021/12/20 12:59:58;;;;;;;0.00;0.00;;;7.40;76.40;;;;;;4978032;28;20121;-85
2021/12/20 13:02:27;;;;;;;0.00;0.00;;;7.20;74.50;;;;;;4978240;28;20026;-86
2021/12/20 13:07:41;;;;;;;0.00;0.00;;;6.80;77.20;;;;;;4012107;22;20078;-78
2021/12/20 13:16:16;;;;;;;0.00;0.00;;;6.20;76.30;;;;;;5013189;28;20024;-80
2021/12/20 13:18:43;;;;;;;0.00;0.00;;;6.00;77.20;;;;;;5014131;28;20032;-79
2021/12/20 13:21:14;;;;;;;0.00;0.00;;;5.80;76.20;;;;;;5015735;28;20033;-79
2021/12/20 13:23:46;;;;;;;0.00;0.00;;;5.60;75.10;;;;;;4998650;28;20449;-79
2021/12/20 13:26:21;;;;;;;0.00;0.00;;;5.50;76.10;;;;;;5015197;28;20045;-80
2021/12/20 13:28:58;;;;;;;0.00;0.00;;;5.40;75.40;;;;;;5014692;28;20435;-80
2021/12/20 13:31:27;;;;;;;0.00;0.00;;;5.30;75.10;;;;;;4986828;28;20334;-79
2021/12/20 13:34:23;;;;;;;0.00;0.00;;;5.20;75.00;;;;;;4990960;28;20069;-79
2021/12/20 13:36:56;;;;;;;0.00;0.00;;;5.10;74.50;;;;;;4971863;28;20516;-81
2021/12/20 13:39:53;;;;;;;0.00;0.00;;;5.10;75.00;;;;;;4981086;28;20037;-81
2021/12/20 13:42:19;;;;;;;0.00;0.00;;;5.00;76.10;;;;;;4975440;28;20488;-79